createdAt,value
2023-04-11T00:00:33.738Z,6.45
2023-04-11T00:01:36.774Z,5.82
2023-04-11T00:02:40.023Z,7.00
2023-04-11T00:03:43.563Z,6.53
2023-04-11T00:04:47.536Z,6.60
2023-04-11T00:05:50.693Z,6.75
2023-04-11T00:06:53.700Z,6.93
2023-04-11T00:07:56.683Z,6.15
2023-04-11T00:08:59.689Z,6.07
2023-04-11T00:10:03.989Z,5.93
2023-04-11T00:11:07.655Z,7.43
2023-04-11T00:12:10.883Z,7.13
2023-04-11T00:13:13.945Z,7.40
2023-04-11T00:14:17.950Z,6.82
2023-04-11T00:15:24.303Z,7.30
2023-04-11T00:16:27.409Z,7.75
2023-04-11T00:17:31.877Z,6.72
2023-04-11T00:18:36.494Z,6.18
2023-04-11T00:19:39.971Z,7.22
2023-04-11T00:20:43.038Z,6.75
2023-04-11T00:21:46.635Z,6.72
2023-04-11T00:22:49.698Z,6.85
2023-04-11T00:23:56.409Z,6.00
2023-04-11T00:24:59.339Z,6.65
2023-04-11T00:26:02.434Z,5.80
2023-04-11T00:27:05.694Z,7.03
2023-04-11T00:28:09.938Z,6.03
2023-04-11T00:29:12.885Z,6.45
2023-04-11T00:30:15.874Z,6.45
2023-04-11T00:31:19.878Z,6.50
2023-04-11T00:32:22.971Z,6.78
2023-04-11T00:33:25.948Z,6.82
2023-04-11T00:34:29.245Z,6.07
2023-04-11T00:35:34.911Z,6.75
2023-04-11T00:36:38.213Z,6.25
2023-04-11T00:37:44.566Z,5.90
2023-04-11T00:38:47.604Z,7.13
2023-04-11T00:39:53.239Z,6.47
2023-04-11T00:40:56.338Z,6.55
2023-04-11T00:42:09.153Z,6.65
2023-04-11T00:43:12.200Z,5.97
2023-04-11T00:44:15.696Z,6.95
2023-04-11T00:45:18.758Z,6.22
2023-04-11T00:46:22.398Z,7.25
2023-04-11T00:47:26.047Z,7.13
2023-04-11T00:48:29.225Z,5.90
2023-04-11T00:49:32.621Z,6.40
2023-04-11T00:50:40.332Z,6.05
2023-04-11T00:51:43.641Z,6.63
2023-04-11T00:52:48.381Z,5.55
2023-04-11T00:53:51.671Z,6.32
2023-04-11T00:54:54.566Z,5.57
2023-04-11T00:55:57.565Z,6.18
2023-04-11T00:57:02.432Z,5.78
2023-04-11T00:58:08.593Z,6.45
2023-04-11T00:59:12.111Z,6.30
2023-04-11T01:00:15.597Z,5.88
2023-04-11T01:01:20.207Z,5.80
2023-04-11T01:02:25.271Z,5.95
2023-04-11T01:03:30.492Z,6.35
2023-04-11T01:04:33.659Z,6.00
2023-04-11T01:05:37.517Z,6.05
2023-04-11T01:06:42.016Z,5.55
2023-04-11T01:07:49.147Z,6.40
2023-04-11T01:08:52.554Z,5.57
2023-04-11T01:09:56.154Z,6.32
2023-04-11T01:10:59.174Z,5.55
2023-04-11T01:12:04.120Z,5.80
2023-04-11T01:13:07.551Z,6.07
2023-04-11T01:14:10.536Z,5.70
2023-04-11T01:15:13.507Z,5.75
2023-04-11T01:16:21.725Z,5.10
2023-04-11T01:17:26.095Z,5.45
2023-04-11T01:18:29.327Z,5.68
2023-04-11T01:19:32.445Z,6.30
2023-04-11T01:20:35.493Z,5.75
2023-04-11T01:21:38.763Z,6.03
2023-04-11T01:22:42.332Z,5.80
2023-04-11T01:23:45.349Z,5.90
2023-04-11T01:24:48.506Z,5.88
2023-04-11T01:25:52.219Z,5.28
2023-04-11T01:26:57.122Z,5.55
2023-04-11T01:28:00.445Z,5.88
2023-04-11T01:29:03.777Z,5.95
2023-04-11T01:30:07.563Z,5.60
2023-04-11T01:31:10.853Z,4.97
2023-04-11T01:32:13.937Z,5.50
2023-04-11T01:33:17.519Z,5.43
2023-04-11T01:34:21.986Z,4.95
2023-04-11T01:35:25.582Z,5.25
2023-04-11T01:36:29.906Z,5.78
2023-04-11T01:37:33.280Z,6.15
2023-04-11T01:38:36.320Z,6.22
2023-04-11T01:39:39.449Z,5.93
2023-04-11T01:40:43.584Z,5.75
2023-04-11T01:41:47.105Z,5.95
2023-04-11T01:42:51.719Z,6.00
2023-04-11T01:43:57.700Z,5.88
2023-04-11T01:45:01.604Z,5.38
2023-04-11T01:46:04.814Z,4.80
2023-04-11T01:47:07.907Z,5.00
2023-04-11T01:48:11.038Z,5.13
2023-04-11T01:49:19.152Z,5.07
2023-04-11T01:50:24.288Z,5.05
2023-04-11T01:51:27.951Z,5.38
2023-04-11T01:52:30.926Z,4.95
2023-04-11T01:53:33.929Z,5.32
2023-04-11T01:54:37.286Z,6.88
2023-04-11T01:55:42.675Z,5.88
2023-04-11T01:56:46.270Z,5.57
2023-04-11T01:57:49.366Z,5.80
2023-04-11T01:58:52.465Z,5.50
2023-04-11T01:59:55.609Z,5.53
2023-04-11T02:00:58.633Z,6.30
2023-04-11T02:02:01.788Z,5.00
2023-04-11T02:03:05.719Z,5.25
2023-04-11T02:04:08.983Z,5.50
2023-04-11T02:05:12.422Z,4.75
2023-04-11T02:06:16.410Z,4.65
2023-04-11T02:07:21.259Z,6.18
2023-04-11T02:08:24.540Z,5.03
2023-04-11T02:09:27.482Z,5.13
2023-04-11T02:10:30.574Z,5.43
2023-04-11T02:11:34.261Z,4.78
2023-04-11T02:12:37.245Z,5.32
2023-04-11T02:13:40.152Z,5.10
2023-04-11T02:14:44.932Z,5.55
2023-04-11T02:15:49.105Z,5.28
2023-04-11T02:16:56.953Z,6.25
2023-04-11T02:18:00.620Z,4.13
2023-04-11T02:19:04.078Z,5.32
2023-04-11T02:20:08.040Z,5.10
2023-04-11T02:21:12.524Z,4.35
2023-04-11T02:22:16.292Z,4.72
2023-04-11T02:23:19.247Z,5.28
2023-04-11T02:24:22.898Z,5.25
2023-04-11T02:25:28.495Z,4.20
2023-04-11T02:26:31.500Z,4.95
2023-04-11T02:27:35.002Z,4.70
2023-04-11T02:28:38.052Z,5.28
2023-04-11T02:29:41.106Z,4.88
2023-04-11T02:30:44.737Z,5.32
2023-04-11T02:31:50.836Z,5.35
2023-04-11T02:32:53.878Z,4.55
2023-04-11T02:33:56.911Z,4.28
2023-04-11T02:34:59.914Z,4.78
2023-04-11T02:36:03.107Z,4.45
2023-04-11T02:37:06.673Z,4.20
2023-04-11T02:38:10.343Z,4.75
2023-04-11T02:39:14.370Z,4.78
2023-04-11T02:40:17.485Z,4.30
2023-04-11T02:41:20.645Z,5.05
2023-04-11T02:42:23.674Z,4.78
2023-04-11T02:43:26.704Z,4.40
2023-04-11T02:44:31.035Z,5.20
2023-04-11T02:45:35.057Z,4.57
2023-04-11T02:46:38.964Z,5.28
2023-04-11T02:47:44.473Z,5.07
2023-04-11T02:48:47.682Z,4.80
2023-04-11T02:49:50.653Z,4.70
2023-04-11T02:50:59.254Z,4.25
2023-04-11T02:52:02.357Z,4.32
2023-04-11T02:53:05.931Z,4.72
2023-04-11T02:54:09.350Z,4.75
2023-04-11T02:55:13.821Z,5.20
2023-04-11T02:56:19.231Z,4.20
2023-04-11T02:57:26.213Z,4.18
2023-04-11T02:58:30.894Z,4.88
2023-04-11T02:59:39.306Z,4.80
2023-04-11T03:00:43.072Z,4.70
2023-04-11T03:01:46.497Z,4.50
2023-04-11T03:02:50.168Z,4.03
2023-04-11T03:03:57.501Z,4.50
2023-04-11T03:05:06.801Z,4.70
2023-04-11T03:06:12.633Z,4.20
2023-04-11T03:07:17.368Z,4.47
2023-04-11T03:08:20.564Z,3.83
2023-04-11T03:09:27.567Z,4.18
2023-04-11T03:10:30.733Z,3.97
2023-04-11T03:11:35.107Z,3.72
2023-04-11T03:12:39.247Z,3.58
2023-04-11T03:13:44.246Z,3.92
2023-04-11T03:14:47.290Z,3.58
2023-04-11T03:15:50.248Z,3.83
2023-04-11T03:16:53.970Z,3.63
2023-04-11T03:17:57.360Z,3.80
2023-04-11T03:19:01.309Z,3.97
2023-04-11T03:20:07.543Z,3.60
2023-04-11T03:21:11.857Z,4.10
2023-04-11T03:22:19.496Z,3.83
2023-04-11T03:23:24.189Z,3.88
2023-04-11T03:24:28.024Z,3.65
2023-04-11T03:25:31.837Z,4.43
2023-04-11T03:26:37.996Z,3.70
2023-04-11T03:27:46.434Z,3.50
2023-04-11T03:28:50.251Z,3.70
2023-04-11T03:29:55.826Z,3.55
2023-04-11T03:31:05.301Z,3.08
2023-04-11T03:32:08.309Z,3.33
2023-04-11T03:33:13.210Z,4.70
2023-04-11T03:34:18.313Z,4.25
2023-04-11T03:35:21.921Z,3.38
2023-04-11T03:36:29.957Z,3.50
2023-04-11T03:37:38.613Z,3.47
2023-04-11T03:38:41.806Z,3.55
2023-04-11T03:39:44.849Z,3.33
2023-04-11T03:40:48.690Z,3.30
2023-04-11T03:41:56.165Z,3.10
2023-04-11T03:43:04.320Z,3.45
2023-04-11T03:44:10.630Z,3.58
2023-04-11T03:45:14.056Z,3.20
2023-04-11T03:46:17.278Z,3.45
2023-04-11T03:47:22.971Z,3.50
2023-04-11T03:48:30.053Z,3.40
2023-04-11T03:49:40.230Z,3.47
2023-04-11T03:50:43.481Z,3.25
2023-04-11T03:51:47.455Z,3.40
2023-04-11T03:52:50.885Z,3.47
2023-04-11T03:53:54.043Z,3.85
2023-04-11T03:55:02.825Z,3.30
2023-04-11T03:56:11.885Z,3.60
2023-04-11T03:57:15.061Z,4.13
2023-04-11T03:58:18.166Z,3.78
2023-04-11T03:59:21.747Z,3.03
2023-04-11T04:00:38.388Z,3.67
2023-04-11T04:01:44.793Z,3.20
2023-04-11T04:02:48.161Z,3.50
2023-04-11T04:03:52.302Z,3.28
2023-04-11T04:04:55.672Z,2.97
2023-04-11T04:07:05.680Z,2.65
2023-04-11T04:08:14.173Z,2.97
2023-04-11T04:09:24.586Z,3.15
2023-04-11T04:10:31.247Z,3.42
2023-04-11T04:11:36.130Z,3.45
2023-04-11T04:12:40.343Z,2.92
2023-04-11T04:13:51.541Z,2.92
2023-04-11T04:14:56.257Z,3.22
2023-04-11T04:16:01.199Z,3.03
2023-04-11T04:17:06.119Z,3.33
2023-04-11T04:18:09.221Z,3.70
2023-04-11T04:19:21.347Z,3.35
2023-04-11T04:20:27.412Z,3.88
2023-04-11T04:21:38.275Z,2.95
2023-04-11T04:23:47.932Z,3.17
2023-04-11T04:25:07.086Z,2.83
2023-04-11T04:26:13.464Z,3.13
2023-04-11T04:27:20.234Z,2.75
2023-04-11T04:28:26.328Z,3.40
2023-04-11T04:29:35.182Z,3.28
2023-04-11T04:30:40.649Z,3.65
2023-04-11T04:31:50.941Z,3.28
2023-04-11T04:32:59.308Z,2.95
2023-04-11T04:34:09.008Z,2.72
2023-04-11T04:35:16.948Z,2.80
2023-04-11T04:36:21.036Z,3.15
2023-04-11T04:37:27.486Z,3.15
2023-04-11T04:39:02.408Z,2.88
2023-04-11T04:40:16.256Z,3.03
2023-04-11T04:41:34.313Z,2.70
2023-04-11T04:42:37.484Z,2.70
2023-04-11T04:43:44.946Z,2.63
2023-04-11T04:44:54.045Z,3.42
2023-04-11T04:45:57.276Z,2.70
2023-04-11T04:47:06.195Z,3.03
2023-04-11T04:48:09.292Z,2.58
2023-04-11T04:49:12.653Z,2.78
2023-04-11T04:50:15.810Z,2.78
2023-04-11T04:51:18.882Z,2.72
2023-04-11T04:52:22.987Z,2.80
2023-04-11T04:53:26.306Z,3.15
2023-04-11T04:54:33.547Z,2.45
2023-04-11T04:55:37.122Z,3.13
2023-04-11T04:56:41.883Z,3.15
2023-04-11T04:57:46.338Z,3.25
2023-04-11T04:58:49.560Z,2.75
2023-04-11T04:59:55.693Z,3.17
2023-04-11T05:00:58.811Z,2.97
2023-04-11T05:02:04.578Z,2.83
2023-04-11T05:03:09.044Z,2.83
2023-04-11T05:04:12.398Z,2.92
2023-04-11T05:05:22.895Z,3.20
2023-04-11T05:06:28.575Z,2.70
2023-04-11T05:07:31.874Z,2.70
2023-04-11T05:08:35.701Z,2.80
2023-04-11T05:09:41.788Z,3.33
2023-04-11T05:10:53.750Z,2.45
2023-04-11T05:11:57.922Z,2.53
2023-04-11T05:13:01.144Z,2.35
2023-04-11T05:14:04.472Z,2.35
2023-04-11T05:15:11.852Z,3.03
2023-04-11T05:16:17.725Z,2.97
2023-04-11T05:17:21.836Z,2.58
2023-04-11T05:18:29.732Z,2.33
2023-04-11T05:19:33.682Z,2.63
2023-04-11T05:20:37.353Z,2.50
2023-04-11T05:21:40.938Z,2.00
2023-04-11T05:22:44.452Z,2.72
2023-04-11T05:23:47.657Z,2.60
2023-04-11T05:24:51.019Z,2.28
2023-04-11T05:25:54.143Z,2.25
2023-04-11T05:26:57.583Z,2.55
2023-04-11T05:28:01.386Z,2.40
2023-04-11T05:29:04.515Z,2.70
2023-04-11T05:30:08.734Z,2.78
2023-04-11T05:31:14.810Z,2.83
2023-04-11T05:32:17.821Z,2.30
2023-04-11T05:33:22.129Z,2.50
2023-04-11T05:34:25.224Z,2.10
2023-04-11T05:35:29.007Z,2.20
2023-04-11T05:36:32.736Z,2.08
2023-04-11T05:37:37.552Z,2.20
2023-04-11T05:38:41.771Z,2.20
2023-04-11T05:39:44.998Z,2.53
2023-04-11T05:40:48.177Z,2.38
2023-04-11T05:41:51.310Z,2.28
2023-04-11T05:42:54.410Z,2.15
2023-04-11T05:43:57.885Z,2.67
2023-04-11T05:45:01.568Z,2.30
2023-04-11T05:46:08.104Z,2.33
2023-04-11T05:47:12.233Z,2.45
2023-04-11T05:48:16.252Z,2.40
2023-04-11T05:49:19.476Z,2.70
2023-04-11T05:50:22.718Z,2.50
2023-04-11T05:51:26.905Z,2.50
2023-04-11T05:52:30.098Z,2.40
2023-04-11T05:53:33.156Z,1.70
2023-04-11T05:54:37.535Z,2.85
2023-04-11T05:55:40.714Z,2.30
2023-04-11T05:56:44.140Z,1.80
2023-04-11T05:57:47.368Z,2.20
2023-04-11T05:58:50.498Z,2.72
2023-04-11T05:59:54.190Z,1.63
2023-04-11T06:01:00.130Z,2.30
2023-04-11T06:02:03.279Z,2.47
2023-04-11T06:03:08.290Z,2.20
2023-04-11T06:04:11.591Z,2.47
2023-04-11T06:05:16.999Z,2.00
2023-04-11T06:06:20.146Z,1.60
2023-04-11T06:07:23.501Z,2.20
2023-04-11T06:08:26.723Z,2.25
2023-04-11T06:09:31.500Z,2.30
2023-04-11T06:10:36.410Z,2.33
2023-04-11T06:11:39.592Z,2.13
2023-04-11T06:12:42.817Z,2.22
2023-04-11T06:13:46.087Z,1.63
2023-04-11T06:14:49.210Z,1.90
2023-04-11T06:15:52.474Z,1.90
2023-04-11T06:16:55.683Z,2.30
2023-04-11T06:17:58.825Z,2.22
2023-04-11T06:19:02.029Z,2.33
2023-04-11T06:20:06.990Z,2.35
2023-04-11T06:21:10.047Z,2.13
2023-04-11T06:22:13.049Z,1.73
2023-04-11T06:23:16.018Z,2.05
2023-04-11T06:24:19.081Z,2.05
2023-04-11T06:25:22.415Z,2.40
2023-04-11T06:26:25.550Z,2.28
2023-04-11T06:27:28.647Z,2.25
2023-04-11T06:28:31.723Z,2.03
2023-04-11T06:29:34.757Z,2.03
2023-04-11T06:30:42.537Z,2.03
2023-04-11T06:31:45.899Z,1.98
2023-04-11T06:32:49.090Z,2.05
2023-04-11T06:33:52.129Z,1.95
2023-04-11T06:34:55.142Z,2.33
2023-04-11T06:35:58.173Z,2.30
2023-04-11T06:37:01.277Z,2.40
2023-04-11T06:38:04.457Z,2.35
2023-04-11T06:39:07.604Z,2.25
2023-04-11T06:40:11.413Z,1.65
2023-04-11T06:41:15.162Z,1.85
2023-04-11T06:42:18.274Z,1.83
2023-04-11T06:43:21.426Z,1.77
2023-04-11T06:44:24.600Z,2.28
2023-04-11T06:45:27.816Z,2.33
2023-04-11T06:46:31.057Z,2.20
2023-04-11T06:47:34.182Z,2.00
2023-04-11T06:48:37.278Z,2.28
2023-04-11T06:49:42.194Z,1.75
2023-04-11T06:50:46.220Z,1.83
2023-04-11T06:51:52.131Z,2.05
2023-04-11T06:52:55.265Z,1.88
2023-04-11T06:53:58.423Z,1.63
2023-04-11T06:55:01.680Z,2.45
2023-04-11T06:56:05.138Z,1.85
2023-04-11T06:57:10.485Z,1.58
2023-04-11T06:58:13.579Z,2.38
2023-04-11T06:59:19.738Z,2.22
2023-04-11T07:00:23.032Z,1.83
2023-04-11T07:01:26.540Z,2.00
2023-04-11T07:02:29.883Z,1.90
2023-04-11T07:03:33.178Z,2.35
2023-04-11T07:04:36.511Z,1.65
2023-04-11T07:05:39.815Z,1.95
2023-04-11T07:06:43.319Z,1.70
2023-04-11T07:07:46.389Z,1.77
2023-04-11T07:08:49.535Z,2.17
2023-04-11T07:09:52.553Z,1.90
2023-04-11T07:10:55.622Z,1.98
2023-04-11T07:11:59.015Z,1.92
2023-04-11T07:13:02.104Z,1.95
2023-04-11T07:14:05.237Z,1.95
2023-04-11T07:15:09.306Z,2.00
2023-04-11T07:16:12.378Z,1.88
2023-04-11T07:17:15.696Z,2.25
2023-04-11T07:18:18.758Z,1.90
2023-04-11T07:19:22.027Z,2.08
2023-04-11T07:20:25.094Z,2.20
2023-04-11T07:21:28.802Z,2.58
2023-04-11T07:22:32.039Z,2.03
2023-04-11T07:23:35.141Z,1.95
2023-04-11T07:24:38.265Z,1.75
2023-04-11T07:25:41.505Z,1.98
2023-04-11T07:26:46.802Z,1.83
2023-04-11T07:27:53.454Z,1.65
2023-04-11T07:28:56.600Z,1.58
2023-04-11T07:30:00.169Z,1.75
2023-04-11T07:31:03.484Z,1.80
2023-04-11T07:32:06.738Z,1.65
2023-04-11T07:33:11.795Z,2.22
2023-04-11T07:34:15.054Z,2.22
2023-04-11T07:35:18.211Z,1.77
2023-04-11T07:36:21.435Z,2.22
2023-04-11T07:37:24.585Z,1.90
2023-04-11T07:38:29.776Z,2.38
2023-04-11T07:39:33.768Z,1.83
2023-04-11T07:40:36.885Z,1.98
2023-04-11T07:41:40.078Z,1.73
2023-04-11T07:42:43.413Z,1.45
2023-04-11T07:43:46.473Z,1.88
2023-04-11T07:44:49.663Z,1.83
2023-04-11T07:45:53.595Z,2.00
2023-04-11T07:46:56.872Z,1.50
2023-04-11T07:48:01.098Z,1.63
2023-04-11T07:49:04.393Z,2.03
2023-04-11T07:50:07.825Z,1.65
2023-04-11T07:51:10.907Z,2.20
2023-04-11T07:52:14.567Z,1.65
2023-04-11T07:53:17.715Z,1.40
2023-04-11T07:54:20.865Z,2.40
2023-04-11T07:55:23.878Z,2.15
2023-04-11T07:56:27.242Z,1.50
2023-04-11T07:57:31.118Z,1.83
2023-04-11T07:58:34.225Z,1.38
2023-04-11T07:59:37.423Z,1.80
2023-04-11T08:00:40.454Z,1.58
2023-04-11T08:01:43.687Z,1.52
2023-04-11T08:02:47.070Z,1.50
2023-04-11T08:03:50.765Z,1.73
2023-04-11T08:04:54.025Z,1.95
2023-04-11T08:05:57.237Z,1.83
2023-04-11T08:07:00.818Z,1.35
2023-04-11T08:08:05.711Z,2.10
2023-04-11T08:09:08.749Z,2.05
2023-04-11T08:10:11.920Z,1.42
2023-04-11T08:11:15.869Z,2.00
2023-04-11T08:12:19.067Z,1.20
2023-04-11T08:13:22.161Z,1.63
2023-04-11T08:14:25.344Z,1.42
2023-04-11T08:15:28.494Z,1.45
2023-04-11T08:16:31.691Z,1.55
2023-04-11T08:17:38.251Z,1.45
2023-04-11T08:18:46.053Z,1.52
2023-04-11T08:19:49.152Z,1.50
2023-04-11T08:20:53.191Z,1.70
2023-04-11T08:21:56.737Z,1.90
2023-04-11T08:23:00.873Z,1.60
2023-04-11T08:24:04.540Z,1.42
2023-04-11T08:25:10.174Z,1.45
2023-04-11T08:26:13.622Z,1.42
2023-04-11T08:27:16.877Z,1.48
2023-04-11T08:28:20.066Z,1.40
2023-04-11T08:29:23.244Z,1.50
2023-04-11T08:30:27.732Z,1.33
2023-04-11T08:31:32.713Z,1.17
2023-04-11T08:32:36.572Z,1.52
2023-04-11T08:33:40.089Z,1.73
2023-04-11T08:34:43.235Z,1.30
2023-04-11T08:35:46.352Z,1.25
2023-04-11T08:36:49.406Z,1.45
2023-04-11T08:37:52.657Z,1.25
2023-04-11T08:38:57.117Z,1.25
2023-04-11T08:40:00.231Z,1.20
2023-04-11T08:41:03.627Z,1.20
2023-04-11T08:42:06.895Z,1.83
2023-04-11T08:43:12.627Z,1.50
2023-04-11T08:44:15.810Z,1.02
2023-04-11T08:45:20.174Z,1.45
2023-04-11T08:46:23.833Z,1.40
2023-04-11T08:47:27.657Z,1.77
2023-04-11T08:48:32.694Z,1.65
2023-04-11T08:49:36.165Z,1.17
2023-04-11T08:50:42.953Z,1.45
2023-04-11T08:51:47.122Z,1.23
2023-04-11T08:52:53.444Z,0.90
2023-04-11T08:54:00.134Z,1.27
2023-04-11T08:55:04.104Z,0.93
2023-04-11T08:56:14.480Z,1.00
2023-04-11T08:57:28.735Z,1.23
2023-04-11T08:58:33.413Z,1.23
2023-04-11T08:59:36.749Z,1.10
2023-04-11T09:00:40.156Z,0.95
2023-04-11T09:01:43.344Z,1.52
2023-04-11T09:03:07.426Z,1.02
2023-04-11T09:04:11.746Z,0.80
2023-04-11T09:05:39.010Z,1.30
2023-04-11T09:07:00.508Z,0.85
2023-04-11T09:08:07.112Z,1.33
2023-04-11T09:09:29.555Z,0.63
2023-04-11T09:10:33.310Z,1.08
2023-04-11T09:11:53.765Z,1.40
2023-04-11T09:12:57.906Z,1.90
2023-04-11T09:14:11.428Z,0.70
2023-04-11T09:15:34.967Z,1.05
2023-04-11T09:16:53.517Z,1.50
2023-04-11T09:17:59.915Z,0.95
2023-04-11T09:20:26.668Z,0.77
2023-04-11T09:21:31.136Z,1.02
2023-04-11T09:22:37.483Z,0.65
2023-04-11T09:23:41.528Z,1.42
2023-04-11T09:24:44.854Z,1.23
2023-04-11T09:25:48.065Z,0.75
2023-04-11T09:26:51.764Z,0.95
2023-04-11T09:28:09.369Z,1.17
2023-04-11T09:29:19.775Z,1.33
2023-04-11T09:30:27.010Z,1.00
2023-04-11T09:31:42.607Z,1.02
2023-04-11T09:32:46.544Z,0.93
2023-04-11T09:33:55.048Z,0.82
2023-04-11T09:51:37.447Z,0.75
2023-04-11T09:52:43.336Z,1.05
2023-04-11T09:53:46.568Z,1.10
2023-04-11T09:54:52.942Z,1.17
2023-04-11T09:55:56.350Z,1.27
2023-04-11T09:57:00.609Z,0.68
2023-04-11T09:58:06.198Z,0.88
2023-04-11T09:59:09.845Z,0.93
2023-04-11T10:00:22.194Z,0.77
2023-04-11T10:01:25.969Z,1.02
2023-04-11T10:02:29.879Z,1.15
2023-04-11T10:03:35.086Z,1.80
2023-04-11T10:04:38.879Z,0.98
2023-04-11T10:05:42.576Z,1.05
2023-04-11T10:07:02.481Z,1.08
2023-04-11T10:08:11.697Z,1.27
2023-04-11T10:09:15.918Z,0.98
2023-04-11T10:10:26.154Z,1.05
2023-04-11T10:11:29.516Z,1.05
2023-04-11T10:12:34.185Z,1.10
2023-04-11T10:13:43.919Z,1.15
2023-04-11T10:14:47.267Z,1.17
2023-04-11T10:16:09.897Z,0.95
2023-04-11T10:17:23.392Z,0.60
2023-04-11T10:18:27.732Z,0.90
2023-04-11T10:19:30.943Z,0.80
2023-04-11T10:20:50.650Z,1.17
2023-04-11T10:21:53.971Z,1.02
2023-04-11T10:23:00.783Z,1.35
2023-04-11T10:24:16.266Z,1.10
2023-04-11T10:25:22.151Z,1.05
2023-04-11T10:26:50.969Z,1.73
2023-04-11T10:28:01.193Z,0.88
2023-04-11T10:29:42.399Z,1.13
2023-04-11T10:30:45.581Z,1.20
2023-04-11T10:32:13.130Z,1.38
2023-04-11T10:33:19.833Z,1.23
2023-04-11T10:34:22.976Z,1.15
2023-04-11T10:35:30.166Z,1.13
2023-04-11T10:37:12.473Z,1.23
2023-04-11T10:38:43.981Z,1.42
2023-04-11T10:40:00.967Z,1.70
2023-04-11T10:41:28.877Z,1.48
2023-04-11T10:42:36.344Z,1.00
2023-04-11T10:44:42.425Z,1.20
2023-04-11T10:45:45.794Z,1.30
2023-04-11T10:46:54.462Z,1.23
2023-04-11T10:47:57.846Z,1.17
2023-04-11T10:49:05.628Z,1.25
2023-04-11T10:50:24.244Z,1.10
2023-04-11T10:51:32.513Z,1.13
2023-04-11T10:52:38.867Z,1.90
2023-04-11T10:53:41.974Z,1.70
2023-04-11T10:54:48.146Z,1.52
2023-04-11T10:55:51.771Z,1.38
2023-04-11T10:56:56.043Z,1.40
2023-04-11T10:58:10.857Z,1.55
2023-04-11T10:59:32.147Z,1.92
2023-04-11T11:00:48.649Z,1.60
2023-04-11T11:02:10.536Z,1.88
2023-04-11T11:03:18.248Z,1.52
2023-04-11T11:04:31.141Z,1.70
2023-04-11T11:05:34.666Z,2.05
2023-04-11T11:06:47.237Z,1.92
2023-04-11T11:07:54.783Z,1.58
2023-04-11T11:08:59.272Z,2.22
2023-04-11T11:10:02.446Z,1.88
2023-04-11T11:11:07.472Z,1.83
2023-04-11T11:12:14.333Z,1.75
2023-04-11T11:13:17.847Z,1.85
2023-04-11T11:14:32.832Z,1.85
2023-04-11T11:15:40.252Z,1.85
2023-04-11T11:17:50.220Z,2.15
2023-04-11T11:18:55.258Z,1.55
2023-04-11T11:19:58.409Z,1.80
2023-04-11T11:21:01.885Z,1.58
2023-04-11T11:22:05.192Z,1.80
2023-04-11T11:23:10.656Z,1.80
2023-04-11T11:24:13.637Z,2.00
2023-04-11T11:25:16.758Z,1.55
2023-04-11T11:26:19.917Z,1.75
2023-04-11T11:27:24.960Z,1.48
2023-04-11T11:29:38.234Z,1.23
2023-04-11T11:30:53.975Z,1.65
2023-04-11T11:31:59.326Z,1.85
2023-04-11T11:33:19.548Z,2.05
2023-04-11T11:34:30.334Z,2.00
2023-04-11T11:35:33.543Z,1.52
2023-04-11T11:36:43.757Z,2.03
2023-04-11T11:37:47.114Z,1.58
2023-04-11T11:38:50.298Z,1.48
2023-04-11T11:39:54.072Z,1.65
2023-04-11T11:40:58.591Z,2.10
2023-04-11T11:42:02.157Z,2.00
2023-04-11T11:43:05.359Z,2.67
2023-04-11T11:44:21.157Z,1.42
2023-04-11T11:46:36.104Z,2.00
2023-04-11T11:47:43.628Z,1.75
2023-04-11T11:49:02.343Z,1.92
2023-04-11T11:50:06.842Z,1.95
2023-04-11T11:51:10.281Z,1.67
2023-04-11T11:52:31.345Z,1.80
2023-04-11T11:53:34.594Z,1.65
2023-04-11T11:54:45.534Z,1.50
2023-04-11T11:55:48.944Z,1.95
2023-04-11T11:56:53.175Z,2.13
2023-04-11T11:58:01.778Z,1.70
2023-04-11T11:59:05.544Z,2.20
2023-04-11T12:00:12.131Z,1.77
2023-04-11T12:01:16.609Z,1.67
2023-04-11T12:02:20.916Z,1.90
2023-04-11T12:03:25.179Z,1.70
2023-04-11T12:04:28.999Z,1.65
2023-04-11T12:05:33.854Z,1.50
2023-04-11T12:06:37.032Z,2.45
2023-04-11T12:07:40.932Z,1.98
2023-04-11T12:08:54.269Z,2.22
2023-04-11T12:10:09.098Z,1.98
2023-04-11T12:11:16.088Z,2.00
2023-04-11T12:12:19.253Z,2.33
2023-04-11T12:13:25.739Z,1.95
2023-04-11T12:14:29.910Z,2.20
2023-04-11T12:15:36.177Z,1.88
2023-04-11T12:16:39.670Z,2.22
2023-04-11T12:17:43.985Z,2.17
2023-04-11T12:18:47.282Z,2.55
2023-04-11T12:19:50.480Z,1.90
2023-04-11T12:20:54.143Z,1.55
2023-04-11T12:21:57.242Z,1.85
2023-04-11T12:23:00.509Z,1.75
2023-04-11T12:24:03.728Z,1.95
2023-04-11T12:25:14.619Z,1.83
2023-04-11T12:26:18.369Z,1.90
2023-04-11T12:27:21.720Z,2.25
2023-04-11T12:28:24.907Z,2.05
2023-04-11T12:29:28.252Z,2.15
2023-04-11T12:30:31.276Z,2.25
2023-04-11T12:31:34.520Z,2.33
2023-04-11T12:32:38.386Z,2.15
2023-04-11T12:33:41.622Z,2.25
2023-04-11T12:34:44.664Z,2.20
2023-04-11T12:35:47.853Z,2.17
2023-04-11T12:36:50.939Z,2.28
2023-04-11T12:37:54.004Z,2.30
2023-04-11T12:38:57.290Z,2.17
2023-04-11T12:40:00.859Z,2.08
2023-04-11T12:41:14.309Z,2.13
2023-04-11T12:42:27.572Z,2.47
2023-04-11T12:43:30.867Z,1.90
2023-04-11T12:44:34.728Z,2.10
2023-04-11T12:45:38.044Z,2.65
2023-04-11T12:46:41.408Z,2.28
2023-04-11T12:47:44.696Z,2.85
2023-04-11T12:48:47.868Z,2.53
2023-04-11T12:49:51.526Z,2.47
2023-04-11T12:50:54.637Z,1.95
2023-04-11T12:51:57.900Z,2.22
2023-04-11T12:53:01.302Z,2.33
2023-04-11T12:54:05.149Z,2.72
2023-04-11T12:55:09.731Z,2.00
2023-04-11T12:56:12.994Z,2.78
2023-04-11T12:57:16.426Z,2.42
2023-04-11T12:58:19.558Z,2.42
2023-04-11T12:59:22.636Z,2.58
2023-04-11T13:00:26.414Z,2.10
2023-04-11T13:01:29.769Z,2.30
2023-04-11T13:02:41.699Z,2.42
2023-04-11T13:03:46.980Z,2.45
2023-04-11T13:04:53.828Z,2.78
2023-04-11T13:05:57.074Z,2.38
2023-04-11T13:07:03.629Z,2.70
2023-04-11T13:08:06.824Z,2.55
2023-04-11T13:09:12.845Z,2.45
2023-04-11T13:10:16.671Z,2.28
2023-04-11T13:11:20.127Z,2.53
2023-04-11T13:12:23.385Z,2.67
2023-04-11T13:13:26.650Z,2.30
2023-04-11T13:14:30.699Z,3.13
2023-04-11T13:15:33.887Z,2.67
2023-04-11T13:16:37.291Z,2.53
2023-04-11T13:17:40.723Z,2.75
2023-04-11T13:18:44.057Z,2.47
2023-04-11T13:19:47.499Z,2.85
2023-04-11T13:20:50.611Z,3.00
2023-04-11T13:21:53.604Z,2.55
2023-04-11T13:22:56.734Z,2.85
2023-04-11T13:23:59.767Z,2.75
2023-04-11T13:25:03.375Z,2.78
2023-04-11T13:26:07.443Z,3.28
2023-04-11T13:27:10.620Z,2.78
2023-04-11T13:28:13.733Z,2.83
2023-04-11T13:29:16.861Z,3.67
2023-04-11T13:30:20.139Z,2.38
2023-04-11T13:31:27.021Z,2.67
2023-04-11T13:32:30.235Z,2.92
2023-04-11T13:33:33.463Z,2.63
2023-04-11T13:34:37.325Z,3.03
2023-04-11T13:35:40.510Z,2.70
2023-04-11T13:36:43.803Z,2.70
2023-04-11T13:37:47.525Z,2.80
2023-04-11T13:38:59.720Z,2.60
2023-04-11T13:40:06.596Z,3.20
2023-04-11T13:41:09.577Z,3.13
2023-04-11T13:42:12.618Z,3.08
2023-04-11T13:43:15.786Z,2.78
2023-04-11T13:44:18.906Z,2.90
2023-04-11T13:45:22.200Z,2.70
2023-04-11T13:46:26.437Z,3.33
2023-04-11T13:47:29.605Z,3.15
2023-04-11T13:48:32.809Z,3.28
2023-04-11T13:49:35.950Z,2.88
2023-04-11T13:50:39.150Z,2.95
2023-04-11T13:51:42.238Z,2.95
2023-04-11T13:52:45.371Z,3.42
2023-04-11T13:53:48.830Z,3.20
2023-04-11T13:54:52.364Z,3.45
2023-04-11T13:55:55.712Z,3.40
2023-04-11T13:56:59.889Z,2.53
2023-04-11T13:58:03.028Z,3.05
2023-04-11T13:59:06.431Z,2.58
2023-04-11T14:00:11.901Z,2.60
2023-04-11T14:01:15.968Z,3.22
2023-04-11T14:02:19.349Z,3.13
2023-04-11T14:03:22.631Z,2.40
2023-04-11T14:04:26.022Z,2.72
2023-04-11T14:05:31.910Z,2.70
2023-04-11T14:06:36.312Z,2.78
2023-04-11T14:07:39.600Z,2.67
2023-04-11T14:08:42.780Z,3.35
2023-04-11T14:09:45.841Z,2.70
2023-04-11T14:10:49.057Z,3.00
2023-04-11T14:11:52.276Z,2.85
2023-04-11T14:12:55.455Z,2.97
2023-04-11T14:13:58.902Z,2.38
2023-04-11T14:15:02.110Z,2.75
2023-04-11T14:16:09.325Z,2.78
2023-04-11T14:17:12.783Z,2.65
2023-04-11T14:18:16.288Z,2.47
2023-04-11T14:19:19.452Z,2.72
2023-04-11T14:20:22.606Z,2.63
2023-04-11T14:21:28.822Z,2.55
2023-04-11T14:22:32.650Z,2.42
2023-04-11T14:23:36.112Z,2.95
2023-04-11T14:24:39.329Z,3.00
2023-04-11T14:25:43.254Z,2.70
2023-04-11T14:26:46.235Z,3.22
2023-04-11T14:27:49.391Z,2.40
2023-04-11T14:28:53.017Z,2.60
2023-04-11T14:29:56.950Z,2.83
2023-04-11T14:31:00.122Z,3.03
2023-04-11T14:32:03.623Z,2.88
2023-04-11T14:33:06.823Z,2.80
2023-04-11T14:34:10.036Z,2.85
2023-04-11T14:35:13.198Z,2.65
2023-04-11T14:36:16.400Z,2.40
2023-04-11T14:37:19.702Z,2.63
2023-04-11T14:38:22.944Z,3.05
2023-04-11T14:39:26.225Z,2.80
2023-04-11T14:40:29.716Z,3.05
2023-04-11T14:41:33.101Z,3.08
2023-04-11T14:42:36.221Z,2.83
2023-04-11T14:43:39.625Z,2.47
2023-04-11T14:44:43.286Z,2.53
2023-04-11T14:45:48.037Z,2.63
2023-04-11T14:46:51.203Z,3.05
2023-04-11T14:47:54.515Z,2.42
2023-04-11T14:48:57.842Z,2.75
2023-04-11T14:50:01.320Z,2.75
2023-04-11T14:51:04.808Z,2.58
2023-04-11T14:52:08.288Z,2.65